TimeEDT,TemperatureF,Dew PointF,Humidity,Sea Level PressureIn,VisibilityMPH,Wind Direction,Wind SpeedMPH,Gust SpeedMPH,PrecipitationIn,Events,Conditions,WindDirDegrees,DateUTC
12:53 AM,39.9,39.0,97,30.12,7.0,Calm,Calm,-,N/A,,Clear,0,2013-09-24 04:53:00
1:53 AM,41.0,39.0,93,30.13,9.0,Calm,Calm,-,N/A,,Clear,0,2013-09-24 05:53:00
2:53 AM,41.0,39.0,93,30.12,8.0,NNW,4.6,-,N/A,,Clear,330,2013-09-24 06:53:00
3:53 AM,39.0,37.0,93,30.12,8.0,NE,3.5,-,N/A,,Clear,40,2013-09-24 07:53:00
4:53 AM,37.9,36.0,93,30.12,6.0,Calm,Calm,-,N/A,,Clear,0,2013-09-24 08:53:00
5:53 AM,37.0,35.1,93,30.13,6.0,Calm,Calm,-,N/A,,Clear,0,2013-09-24 09:53:00
6:53 AM,37.0,35.1,93,30.13,5.0,Calm,Calm,-,N/A,,Clear,0,2013-09-24 10:53:00
7:53 AM,41.0,39.0,93,30.14,7.0,Calm,Calm,-,N/A,,Clear,0,2013-09-24 11:53:00
8:53 AM,46.0,43.0,89,30.14,10.0,Calm,Calm,-,N/A,,Clear,0,2013-09-24 12:53:00
9:53 AM,52.0,44.1,74,30.13,10.0,Calm,Calm,-,N/A,,Clear,0,2013-09-24 13:53:00
10:53 AM,60.1,48.0,64,30.10,10.0,Variable,4.6,-,N/A,,Clear,0,2013-09-24 14:53:00
11:53 AM,64.0,46.0,52,30.07,10.0,NNW,8.1,-,N/A,,Clear,340,2013-09-24 15:53:00
12:53 PM,66.9,45.0,45,30.05,10.0,Variable,3.5,-,N/A,,Clear,0,2013-09-24 16:53:00
1:53 PM,70.0,44.1,39,30.02,10.0,North,3.5,-,N/A,,Clear,350,2013-09-24 17:53:00
2:53 PM,72.0,43.0,35,29.99,10.0,North,3.5,-,N/A,,Clear,350,2013-09-24 18:53:00
3:53 PM,73.0,42.1,33,29.97,10.0,Calm,Calm,-,N/A,,Clear,0,2013-09-24 19:53:00
4:53 PM,73.0,43.0,34,29.96,10.0,Calm,Calm,-,N/A,,Clear,0,2013-09-24 20:53:00
5:53 PM,70.0,44.1,39,29.96,10.0,WNW,3.5,-,N/A,,Clear,300,2013-09-24 21:53:00
6:53 PM,57.0,51.1,81,29.96,10.0,Calm,Calm,-,N/A,,Clear,0,2013-09-24 22:53:00
7:53 PM,53.1,50.0,89,29.97,10.0,NNW,3.5,-,N/A,,Clear,330,2013-09-24 23:53:00
8:53 PM,48.9,46.0,90,29.98,10.0,Calm,Calm,-,N/A,,Clear,0,2013-09-25 00:53:00
9:53 PM,48.0,46.0,93,29.99,10.0,Calm,Calm,-,N/A,,Clear,0,2013-09-25 01:53:00
10:53 PM,46.9,45.0,93,29.99,10.0,NNW,4.6,-,N/A,,Clear,340,2013-09-25 02:53:00
11:53 PM,45.0,44.1,97,29.98,10.0,Calm,Calm,-,N/A,,Clear,0,2013-09-25 03:53:00